sensor_id;sensor_type;location;lat;lon;timestamp;temperature;humidity
8838;DHT22;4455;50.880;4.698;2022-07-10T00:00:43;16.10;99.90
8838;DHT22;4455;50.880;4.698;2022-07-10T00:03:09;16.00;99.90
8838;DHT22;4455;50.880;4.698;2022-07-10T00:05:34;16.00;99.90
8838;DHT22;4455;50.880;4.698;2022-07-10T00:08:01;16.00;99.90
8838;DHT22;4455;50.880;4.698;2022-07-10T00:10:27;16.00;99.90
8838;DHT22;4455;50.880;4.698;2022-07-10T00:12:55;16.10;99.90
8838;DHT22;4455;50.880;4.698;2022-07-10T00:15:21;16.10;99.90
8838;DHT22;4455;50.880;4.698;2022-07-10T00:17:47;16.10;99.90
8838;DHT22;4455;50.880;4.698;2022-07-10T00:20:14;16.10;99.90
8838;DHT22;4455;50.880;4.698;2022-07-10T00:22:41;16.00;99.90
8838;DHT22;4455;50.880;4.698;2022-07-10T00:25:10;16.00;99.90
8838;DHT22;4455;50.880;4.698;2022-07-10T00:27:37;15.90;99.90
8838;DHT22;4455;50.880;4.698;2022-07-10T00:30:03;15.90;99.90
8838;DHT22;4455;50.880;4.698;2022-07-10T00:32:29;15.90;99.90
8838;DHT22;4455;50.880;4.698;2022-07-10T00:34:55;15.90;99.90
8838;DHT22;4455;50.880;4.698;2022-07-10T00:37:21;15.80;99.90
8838;DHT22;4455;50.880;4.698;2022-07-10T00:39:47;15.80;99.90
8838;DHT22;4455;50.880;4.698;2022-07-10T00:42:15;15.70;99.90
8838;DHT22;4455;50.880;4.698;2022-07-10T00:44:41;15.70;99.90
8838;DHT22;4455;50.880;4.698;2022-07-10T00:47:09;15.70;99.90
8838;DHT22;4455;50.880;4.698;2022-07-10T00:49:36;15.80;99.90
8838;DHT22;4455;50.880;4.698;2022-07-10T00:52:06;15.80;99.90
8838;DHT22;4455;50.880;4.698;2022-07-10T00:54:33;15.80;99.90
8838;DHT22;4455;50.880;4.698;2022-07-10T00:56:59;15.90;99.90
8838;DHT22;4455;50.880;4.698;2022-07-10T00:59:27;15.80;99.90
8838;DHT22;4455;50.880;4.698;2022-07-10T01:01:53;15.80;99.90
8838;DHT22;4455;50.880;4.698;2022-07-10T01:04:19;15.80;99.90
8838;DHT22;4455;50.880;4.698;2022-07-10T01:06:45;15.70;99.90
8838;DHT22;4455;50.880;4.698;2022-07-10T01:09:11;15.70;99.90
8838;DHT22;4455;50.880;4.698;2022-07-10T01:11:37;15.70;99.90
8838;DHT22;4455;50.880;4.698;2022-07-10T01:14:04;15.60;99.90
8838;DHT22;4455;50.880;4.698;2022-07-10T01:16:31;15.60;99.90
8838;DHT22;4455;50.880;4.698;2022-07-10T01:18:57;15.60;99.90
8838;DHT22;4455;50.880;4.698;2022-07-10T01:21:31;15.60;99.90
8838;DHT22;4455;50.880;4.698;2022-07-10T01:23:58;15.50;99.90
8838;DHT22;4455;50.880;4.698;2022-07-10T01:26:24;15.50;99.90
8838;DHT22;4455;50.880;4.698;2022-07-10T01:28:52;15.40;99.90
8838;DHT22;4455;50.880;4.698;2022-07-10T01:31:27;15.40;99.90
8838;DHT22;4455;50.880;4.698;2022-07-10T01:33:54;15.30;99.90
8838;DHT22;4455;50.880;4.698;2022-07-10T01:36:21;15.40;99.90
8838;DHT22;4455;50.880;4.698;2022-07-10T01:38:47;15.40;99.90
8838;DHT22;4455;50.880;4.698;2022-07-10T01:41:13;15.40;99.90
8838;DHT22;4455;50.880;4.698;2022-07-10T01:43:39;15.30;99.90
8838;DHT22;4455;50.880;4.698;2022-07-10T01:46:11;15.20;99.90
8838;DHT22;4455;50.880;4.698;2022-07-10T01:48:41;15.10;99.90
8838;DHT22;4455;50.880;4.698;2022-07-10T01:51:08;15.10;99.90
8838;DHT22;4455;50.880;4.698;2022-07-10T01:53:35;15.10;99.90
8838;DHT22;4455;50.880;4.698;2022-07-10T01:56:04;15.00;99.90
8838;DHT22;4455;50.880;4.698;2022-07-10T01:58:31;14.90;99.90
8838;DHT22;4455;50.880;4.698;2022-07-10T02:00:57;15.00;99.90
8838;DHT22;4455;50.880;4.698;2022-07-10T02:03:23;14.90;99.90
8838;DHT22;4455;50.880;4.698;2022-07-10T02:06:07;14.80;99.90
8838;DHT22;4455;50.880;4.698;2022-07-10T02:08:33;14.70;99.90
8838;DHT22;4455;50.880;4.698;2022-07-10T02:10:59;14.80;99.90
8838;DHT22;4455;50.880;4.698;2022-07-10T02:13:25;14.80;99.90
8838;DHT22;4455;50.880;4.698;2022-07-10T02:15:54;14.80;99.90
8838;DHT22;4455;50.880;4.698;2022-07-10T02:18:20;15.00;99.90
8838;DHT22;4455;50.880;4.698;2022-07-10T02:20:46;15.20;99.90
8838;DHT22;4455;50.880;4.698;2022-07-10T02:23:12;15.10;99.90
8838;DHT22;4455;50.880;4.698;2022-07-10T02:25:38;15.10;99.90
8838;DHT22;4455;50.880;4.698;2022-07-10T02:28:05;15.20;99.90
8838;DHT22;4455;50.880;4.698;2022-07-10T02:30:31;15.20;99.90
8838;DHT22;4455;50.880;4.698;2022-07-10T02:32:57;15.10;99.90
8838;DHT22;4455;50.880;4.698;2022-07-10T02:35:22;15.00;99.90
8838;DHT22;4455;50.880;4.698;2022-07-10T02:37:49;14.90;99.90
8838;DHT22;4455;50.880;4.698;2022-07-10T02:40:15;14.80;99.90
8838;DHT22;4455;50.880;4.698;2022-07-10T02:42:40;14.90;99.90
8838;DHT22;4455;50.880;4.698;2022-07-10T02:45:07;14.90;99.90
8838;DHT22;4455;50.880;4.698;2022-07-10T02:47:33;14.80;99.90
8838;DHT22;4455;50.880;4.698;2022-07-10T02:49:59;14.70;99.90
8838;DHT22;4455;50.880;4.698;2022-07-10T02:52:25;14.80;99.90
8838;DHT22;4455;50.880;4.698;2022-07-10T02:54:51;14.90;99.90
8838;DHT22;4455;50.880;4.698;2022-07-10T02:57:17;14.90;99.90
8838;DHT22;4455;50.880;4.698;2022-07-10T02:59:43;14.80;99.90
8838;DHT22;4455;50.880;4.698;2022-07-10T03:02:09;14.90;99.90
8838;DHT22;4455;50.880;4.698;2022-07-10T03:04:35;14.90;99.90
8838;DHT22;4455;50.880;4.698;2022-07-10T03:07:01;14.90;99.90
8838;DHT22;4455;50.880;4.698;2022-07-10T03:09:27;14.80;99.90
8838;DHT22;4455;50.880;4.698;2022-07-10T03:11:53;14.90;99.90
8838;DHT22;4455;50.880;4.698;2022-07-10T03:14:19;15.00;99.90
8838;DHT22;4455;50.880;4.698;2022-07-10T03:16:44;15.00;99.90
8838;DHT22;4455;50.880;4.698;2022-07-10T03:19:10;15.00;99.90
8838;DHT22;4455;50.880;4.698;2022-07-10T03:21:37;14.90;99.90
8838;DHT22;4455;50.880;4.698;2022-07-10T03:24:03;15.00;99.90
8838;DHT22;4455;50.880;4.698;2022-07-10T03:26:29;14.90;99.90
8838;DHT22;4455;50.880;4.698;2022-07-10T03:28:55;15.00;99.90
8838;DHT22;4455;50.880;4.698;2022-07-10T03:31:22;14.90;99.90
8838;DHT22;4455;50.880;4.698;2022-07-10T03:33:48;15.00;99.90
8838;DHT22;4455;50.880;4.698;2022-07-10T03:36:15;14.90;99.90
8838;DHT22;4455;50.880;4.698;2022-07-10T03:38:41;14.80;99.90
8838;DHT22;4455;50.880;4.698;2022-07-10T03:41:07;14.70;99.90
8838;DHT22;4455;50.880;4.698;2022-07-10T03:43:33;14.60;99.90
8838;DHT22;4455;50.880;4.698;2022-07-10T03:45:59;14.50;99.90
8838;DHT22;4455;50.880;4.698;2022-07-10T03:48:25;14.50;99.90
8838;DHT22;4455;50.880;4.698;2022-07-10T03:50:51;14.60;99.90
8838;DHT22;4455;50.880;4.698;2022-07-10T03:53:18;14.50;99.90
8838;DHT22;4455;50.880;4.698;2022-07-10T03:55:44;14.40;99.90
8838;DHT22;4455;50.880;4.698;2022-07-10T03:58:10;14.40;99.90
8838;DHT22;4455;50.880;4.698;2022-07-10T04:00:36;14.40;99.90
8838;DHT22;4455;50.880;4.698;2022-07-10T04:03:07;14.30;99.90
8838;DHT22;4455;50.880;4.698;2022-07-10T04:05:33;14.30;99.90
8838;DHT22;4455;50.880;4.698;2022-07-10T04:08:01;14.40;99.90
8838;DHT22;4455;50.880;4.698;2022-07-10T04:10:28;14.40;99.90
8838;DHT22;4455;50.880;4.698;2022-07-10T04:12:55;14.50;99.90
8838;DHT22;4455;50.880;4.698;2022-07-10T04:15:21;14.50;99.90
8838;DHT22;4455;50.880;4.698;2022-07-10T04:17:48;14.50;99.90
8838;DHT22;4455;50.880;4.698;2022-07-10T04:20:14;14.50;99.90
8838;DHT22;4455;50.880;4.698;2022-07-10T04:22:41;14.40;99.90
8838;DHT22;4455;50.880;4.698;2022-07-10T04:25:07;14.50;99.90
8838;DHT22;4455;50.880;4.698;2022-07-10T04:27:34;14.60;99.90
8838;DHT22;4455;50.880;4.698;2022-07-10T04:30:00;14.70;99.90
8838;DHT22;4455;50.880;4.698;2022-07-10T04:32:27;14.70;99.90
8838;DHT22;4455;50.880;4.698;2022-07-10T04:34:54;14.70;99.90
8838;DHT22;4455;50.880;4.698;2022-07-10T04:37:20;14.60;99.90
8838;DHT22;4455;50.880;4.698;2022-07-10T04:39:46;14.70;99.90
8838;DHT22;4455;50.880;4.698;2022-07-10T04:42:11;14.80;99.90
8838;DHT22;4455;50.880;4.698;2022-07-10T04:44:37;14.80;99.90
8838;DHT22;4455;50.880;4.698;2022-07-10T04:47:04;14.90;99.90
8838;DHT22;4455;50.880;4.698;2022-07-10T04:49:31;15.00;99.90
8838;DHT22;4455;50.880;4.698;2022-07-10T04:51:57;15.10;99.90
8838;DHT22;4455;50.880;4.698;2022-07-10T04:54:23;15.10;99.90
8838;DHT22;4455;50.880;4.698;2022-07-10T04:56:52;15.10;99.90
8838;DHT22;4455;50.880;4.698;2022-07-10T04:59:18;15.10;99.90
8838;DHT22;4455;50.880;4.698;2022-07-10T05:01:45;15.20;99.90
8838;DHT22;4455;50.880;4.698;2022-07-10T05:04:11;15.20;99.90
8838;DHT22;4455;50.880;4.698;2022-07-10T05:06:37;15.30;99.90
8838;DHT22;4455;50.880;4.698;2022-07-10T05:09:04;15.40;99.90
8838;DHT22;4455;50.880;4.698;2022-07-10T05:11:31;15.50;99.90
8838;DHT22;4455;50.880;4.698;2022-07-10T05:13:58;15.40;99.90
8838;DHT22;4455;50.880;4.698;2022-07-10T05:16:24;15.50;99.90
8838;DHT22;4455;50.880;4.698;2022-07-10T05:18:49;15.50;99.90
8838;DHT22;4455;50.880;4.698;2022-07-10T05:21:15;15.50;99.90
8838;DHT22;4455;50.880;4.698;2022-07-10T05:23:41;15.60;99.90
8838;DHT22;4455;50.880;4.698;2022-07-10T05:26:07;15.50;99.90
8838;DHT22;4455;50.880;4.698;2022-07-10T05:28:33;15.50;99.90
8838;DHT22;4455;50.880;4.698;2022-07-10T05:30:59;15.40;99.90
8838;DHT22;4455;50.880;4.698;2022-07-10T05:33:25;15.50;99.90
8838;DHT22;4455;50.880;4.698;2022-07-10T05:35:54;15.60;99.90
8838;DHT22;4455;50.880;4.698;2022-07-10T05:38:20;15.70;99.90
8838;DHT22;4455;50.880;4.698;2022-07-10T05:40:46;15.60;99.90
8838;DHT22;4455;50.880;4.698;2022-07-10T05:43:12;15.70;99.90
8838;DHT22;4455;50.880;4.698;2022-07-10T05:45:43;15.60;99.90
8838;DHT22;4455;50.880;4.698;2022-07-10T05:48:09;15.60;99.90
8838;DHT22;4455;50.880;4.698;2022-07-10T05:50:36;15.70;99.90
8838;DHT22;4455;50.880;4.698;2022-07-10T05:53:01;15.70;99.90
8838;DHT22;4455;50.880;4.698;2022-07-10T05:55:27;15.80;99.90
8838;DHT22;4455;50.880;4.698;2022-07-10T05:57:53;15.90;99.90
8838;DHT22;4455;50.880;4.698;2022-07-10T06:00:22;16.10;99.90
8838;DHT22;4455;50.880;4.698;2022-07-10T06:02:47;16.20;99.90
8838;DHT22;4455;50.880;4.698;2022-07-10T06:05:13;16.20;99.90
8838;DHT22;4455;50.880;4.698;2022-07-10T06:07:39;16.30;99.90
8838;DHT22;4455;50.880;4.698;2022-07-10T06:10:06;16.30;99.90
8838;DHT22;4455;50.880;4.698;2022-07-10T06:12:32;16.30;99.90
8838;DHT22;4455;50.880;4.698;2022-07-10T06:14:58;16.30;99.90
8838;DHT22;4455;50.880;4.698;2022-07-10T06:17:24;16.30;99.90
8838;DHT22;4455;50.880;4.698;2022-07-10T06:19:50;16.40;99.90
8838;DHT22;4455;50.880;4.698;2022-07-10T06:22:16;16.60;99.90
8838;DHT22;4455;50.880;4.698;2022-07-10T06:25:00;16.60;99.90
8838;DHT22;4455;50.880;4.698;2022-07-10T06:27:30;16.60;99.90
8838;DHT22;4455;50.880;4.698;2022-07-10T06:29:58;16.70;99.90
8838;DHT22;4455;50.880;4.698;2022-07-10T06:32:41;16.70;99.90
8838;DHT22;4455;50.880;4.698;2022-07-10T06:35:07;16.80;99.90
8838;DHT22;4455;50.880;4.698;2022-07-10T06:37:35;16.90;99.90
8838;DHT22;4455;50.880;4.698;2022-07-10T06:40:01;16.90;99.90
8838;DHT22;4455;50.880;4.698;2022-07-10T06:42:27;16.90;99.90
8838;DHT22;4455;50.880;4.698;2022-07-10T06:44:52;17.00;99.90
8838;DHT22;4455;50.880;4.698;2022-07-10T06:47:19;17.00;99.90
8838;DHT22;4455;50.880;4.698;2022-07-10T06:50:05;17.00;99.90
8838;DHT22;4455;50.880;4.698;2022-07-10T06:52:32;17.00;99.90
8838;DHT22;4455;50.880;4.698;2022-07-10T06:54:59;17.00;99.90
8838;DHT22;4455;50.880;4.698;2022-07-10T06:57:28;17.10;99.90
8838;DHT22;4455;50.880;4.698;2022-07-10T06:59:54;17.20;99.90
8838;DHT22;4455;50.880;4.698;2022-07-10T07:02:22;17.30;99.90
8838;DHT22;4455;50.880;4.698;2022-07-10T07:04:48;17.30;99.90
8838;DHT22;4455;50.880;4.698;2022-07-10T07:07:14;17.20;99.90
8838;DHT22;4455;50.880;4.698;2022-07-10T07:09:41;17.30;99.90
8838;DHT22;4455;50.880;4.698;2022-07-10T07:12:08;17.30;99.90
8838;DHT22;4455;50.880;4.698;2022-07-10T07:14:35;17.30;99.90
8838;DHT22;4455;50.880;4.698;2022-07-10T07:17:01;17.40;99.90
8838;DHT22;4455;50.880;4.698;2022-07-10T07:19:35;17.50;99.90
8838;DHT22;4455;50.880;4.698;2022-07-10T07:22:20;17.50;99.90
8838;DHT22;4455;50.880;4.698;2022-07-10T07:25:06;17.70;99.90
8838;DHT22;4455;50.880;4.698;2022-07-10T07:27:33;17.60;99.90
8838;DHT22;4455;50.880;4.698;2022-07-10T07:30:10;17.60;99.90
8838;DHT22;4455;50.880;4.698;2022-07-10T07:32:38;17.80;99.90
8838;DHT22;4455;50.880;4.698;2022-07-10T07:35:05;17.80;99.90
8838;DHT22;4455;50.880;4.698;2022-07-10T07:37:47;18.00;99.90
8838;DHT22;4455;50.880;4.698;2022-07-10T07:40:15;18.20;99.90
8838;DHT22;4455;50.880;4.698;2022-07-10T07:42:41;18.40;99.90
8838;DHT22;4455;50.880;4.698;2022-07-10T07:45:08;18.80;99.90
8838;DHT22;4455;50.880;4.698;2022-07-10T07:50:23;19.20;99.90
8838;DHT22;4455;50.880;4.698;2022-07-10T07:52:49;19.70;99.90
8838;DHT22;4455;50.880;4.698;2022-07-10T07:55:17;20.20;99.90
8838;DHT22;4455;50.880;4.698;2022-07-10T07:57:44;20.70;99.90
8838;DHT22;4455;50.880;4.698;2022-07-10T08:00:11;21.00;99.90
8838;DHT22;4455;50.880;4.698;2022-07-10T08:02:38;21.40;99.90
8838;DHT22;4455;50.880;4.698;2022-07-10T08:05:05;21.70;99.90
8838;DHT22;4455;50.880;4.698;2022-07-10T08:07:42;21.90;99.90
8838;DHT22;4455;50.880;4.698;2022-07-10T08:10:13;22.10;99.90
8838;DHT22;4455;50.880;4.698;2022-07-10T08:12:39;22.40;99.90
8838;DHT22;4455;50.880;4.698;2022-07-10T08:15:10;22.60;99.90
8838;DHT22;4455;50.880;4.698;2022-07-10T08:17:37;22.70;99.90
8838;DHT22;4455;50.880;4.698;2022-07-10T08:20:06;22.60;99.90
8838;DHT22;4455;50.880;4.698;2022-07-10T08:22:32;22.40;99.90
8838;DHT22;4455;50.880;4.698;2022-07-10T08:24:58;22.00;99.90
8838;DHT22;4455;50.880;4.698;2022-07-10T08:27:24;21.90;99.90
8838;DHT22;4455;50.880;4.698;2022-07-10T08:29:50;21.90;99.90
8838;DHT22;4455;50.880;4.698;2022-07-10T08:32:16;21.70;99.90
8838;DHT22;4455;50.880;4.698;2022-07-10T08:34:42;21.30;99.90
8838;DHT22;4455;50.880;4.698;2022-07-10T08:37:08;21.00;99.90
8838;DHT22;4455;50.880;4.698;2022-07-10T08:39:35;20.70;99.90
8838;DHT22;4455;50.880;4.698;2022-07-10T08:42:00;20.40;99.90
8838;DHT22;4455;50.880;4.698;2022-07-10T08:44:30;20.30;99.90
8838;DHT22;4455;50.880;4.698;2022-07-10T08:46:57;20.10;99.90
8838;DHT22;4455;50.880;4.698;2022-07-10T08:49:27;20.10;99.90
8838;DHT22;4455;50.880;4.698;2022-07-10T08:54:31;20.20;99.90
8838;DHT22;4455;50.880;4.698;2022-07-10T08:57:02;20.20;99.90
8838;DHT22;4455;50.880;4.698;2022-07-10T08:59:29;20.30;99.90
8838;DHT22;4455;50.880;4.698;2022-07-10T09:01:55;20.30;99.90
8838;DHT22;4455;50.880;4.698;2022-07-10T09:04:23;20.40;99.90
8838;DHT22;4455;50.880;4.698;2022-07-10T09:06:51;20.60;99.90
8838;DHT22;4455;50.880;4.698;2022-07-10T09:09:18;20.80;99.90
8838;DHT22;4455;50.880;4.698;2022-07-10T09:11:44;20.80;99.90
8838;DHT22;4455;50.880;4.698;2022-07-10T09:14:11;21.00;99.90
8838;DHT22;4455;50.880;4.698;2022-07-10T09:16:45;21.20;99.90
8838;DHT22;4455;50.880;4.698;2022-07-10T09:19:20;21.20;99.90
8838;DHT22;4455;50.880;4.698;2022-07-10T09:21:47;21.10;99.90
8838;DHT22;4455;50.880;4.698;2022-07-10T09:24:14;21.30;99.90
8838;DHT22;4455;50.880;4.698;2022-07-10T09:26:42;21.40;99.90
8838;DHT22;4455;50.880;4.698;2022-07-10T09:29:14;21.40;99.90
8838;DHT22;4455;50.880;4.698;2022-07-10T09:31:54;21.40;99.90
8838;DHT22;4455;50.880;4.698;2022-07-10T09:34:44;21.40;99.90
8838;DHT22;4455;50.880;4.698;2022-07-10T09:39:58;20.70;99.90
8838;DHT22;4455;50.880;4.698;2022-07-10T09:50:24;20.90;99.90
8838;DHT22;4455;50.880;4.698;2022-07-10T09:52:52;20.80;99.90
8838;DHT22;4455;50.880;4.698;2022-07-10T09:55:24;20.60;99.90
8838;DHT22;4455;50.880;4.698;2022-07-10T09:58:02;20.70;99.90
8838;DHT22;4455;50.880;4.698;2022-07-10T10:00:34;21.00;99.90
8838;DHT22;4455;50.880;4.698;2022-07-10T10:03:02;21.20;99.90
8838;DHT22;4455;50.880;4.698;2022-07-10T10:05:53;21.30;99.90
8838;DHT22;4455;50.880;4.698;2022-07-10T10:10:49;21.30;99.90
8838;DHT22;4455;50.880;4.698;2022-07-10T10:13:25;21.30;99.90
8838;DHT22;4455;50.880;4.698;2022-07-10T10:15:56;21.20;99.90
8838;DHT22;4455;50.880;4.698;2022-07-10T10:18:24;21.20;99.90
8838;DHT22;4455;50.880;4.698;2022-07-10T10:20:52;21.30;99.90
8838;DHT22;4455;50.880;4.698;2022-07-10T10:23:23;21.30;99.90
8838;DHT22;4455;50.880;4.698;2022-07-10T10:25:53;21.20;99.90
8838;DHT22;4455;50.880;4.698;2022-07-10T10:28:23;21.30;99.90
8838;DHT22;4455;50.880;4.698;2022-07-10T10:30:52;21.30;99.90
8838;DHT22;4455;50.880;4.698;2022-07-10T10:36:03;21.40;99.90
8838;DHT22;4455;50.880;4.698;2022-07-10T10:41:26;21.60;99.90
8838;DHT22;4455;50.880;4.698;2022-07-10T10:49:17;22.00;99.90
8838;DHT22;4455;50.880;4.698;2022-07-10T10:57:16;22.20;99.90
8838;DHT22;4455;50.880;4.698;2022-07-10T10:59:49;22.20;99.90
8838;DHT22;4455;50.880;4.698;2022-07-10T11:04:52;22.30;99.90
8838;DHT22;4455;50.880;4.698;2022-07-10T11:07:59;22.40;99.90
8838;DHT22;4455;50.880;4.698;2022-07-10T11:10:33;22.50;99.90
8838;DHT22;4455;50.880;4.698;2022-07-10T11:15:38;22.60;99.90
8838;DHT22;4455;50.880;4.698;2022-07-10T11:18:18;22.50;99.90
8838;DHT22;4455;50.880;4.698;2022-07-10T11:20:50;22.50;99.90
8838;DHT22;4455;50.880;4.698;2022-07-10T11:26:08;22.40;99.90
8838;DHT22;4455;50.880;4.698;2022-07-10T11:31:11;22.40;99.90
8838;DHT22;4455;50.880;4.698;2022-07-10T11:33:42;22.40;99.90
8838;DHT22;4455;50.880;4.698;2022-07-10T11:36:17;22.30;99.90
8838;DHT22;4455;50.880;4.698;2022-07-10T11:38:44;22.30;99.90
8838;DHT22;4455;50.880;4.698;2022-07-10T11:41:19;22.30;99.90
8838;DHT22;4455;50.880;4.698;2022-07-10T11:43:57;22.20;99.90
8838;DHT22;4455;50.880;4.698;2022-07-10T11:46:25;22.20;99.90
8838;DHT22;4455;50.880;4.698;2022-07-10T11:48:52;22.20;99.90
8838;DHT22;4455;50.880;4.698;2022-07-10T11:51:26;22.30;99.90
8838;DHT22;4455;50.880;4.698;2022-07-10T11:56:20;22.20;99.90
8838;DHT22;4455;50.880;4.698;2022-07-10T11:59:00;22.30;99.90
8838;DHT22;4455;50.880;4.698;2022-07-10T12:01:28;22.50;99.90
8838;DHT22;4455;50.880;4.698;2022-07-10T12:03:59;22.60;99.90
8838;DHT22;4455;50.880;4.698;2022-07-10T12:06:26;22.60;99.90
8838;DHT22;4455;50.880;4.698;2022-07-10T12:08:53;22.60;99.90
8838;DHT22;4455;50.880;4.698;2022-07-10T12:11:20;22.60;99.90
8838;DHT22;4455;50.880;4.698;2022-07-10T12:13:47;22.50;99.90
8838;DHT22;4455;50.880;4.698;2022-07-10T12:16:14;22.40;99.90
8838;DHT22;4455;50.880;4.698;2022-07-10T12:18:41;22.40;99.90
8838;DHT22;4455;50.880;4.698;2022-07-10T12:21:11;22.50;99.90
8838;DHT22;4455;50.880;4.698;2022-07-10T12:23:38;22.40;99.90
8838;DHT22;4455;50.880;4.698;2022-07-10T12:26:10;22.40;99.90
8838;DHT22;4455;50.880;4.698;2022-07-10T12:28:50;22.60;99.90
8838;DHT22;4455;50.880;4.698;2022-07-10T12:31:28;22.60;99.90
8838;DHT22;4455;50.880;4.698;2022-07-10T12:33:57;22.60;99.90
8838;DHT22;4455;50.880;4.698;2022-07-10T12:36:26;22.70;99.90
8838;DHT22;4455;50.880;4.698;2022-07-10T12:38:56;22.80;99.90
8838;DHT22;4455;50.880;4.698;2022-07-10T12:41:25;22.90;99.90
8838;DHT22;4455;50.880;4.698;2022-07-10T12:43:52;22.90;99.90
8838;DHT22;4455;50.880;4.698;2022-07-10T12:46:19;22.90;99.90
8838;DHT22;4455;50.880;4.698;2022-07-10T12:49:02;23.00;99.90
8838;DHT22;4455;50.880;4.698;2022-07-10T12:51:31;23.00;99.90
8838;DHT22;4455;50.880;4.698;2022-07-10T12:53:57;22.90;99.90
8838;DHT22;4455;50.880;4.698;2022-07-10T12:56:55;22.80;99.90
8838;DHT22;4455;50.880;4.698;2022-07-10T12:59:21;22.80;99.90
8838;DHT22;4455;50.880;4.698;2022-07-10T13:01:47;22.70;99.90
8838;DHT22;4455;50.880;4.698;2022-07-10T13:04:13;22.80;99.90
8838;DHT22;4455;50.880;4.698;2022-07-10T13:06:40;23.00;99.90
8838;DHT22;4455;50.880;4.698;2022-07-10T13:09:20;22.90;99.90
8838;DHT22;4455;50.880;4.698;2022-07-10T13:11:47;23.00;99.90
8838;DHT22;4455;50.880;4.698;2022-07-10T13:14:13;23.00;99.90
8838;DHT22;4455;50.880;4.698;2022-07-10T13:16:39;23.00;99.90
8838;DHT22;4455;50.880;4.698;2022-07-10T13:19:05;23.00;99.90
8838;DHT22;4455;50.880;4.698;2022-07-10T13:21:31;23.20;99.90
8838;DHT22;4455;50.880;4.698;2022-07-10T13:23:57;23.30;99.90
8838;DHT22;4455;50.880;4.698;2022-07-10T13:26:22;23.40;99.90
8838;DHT22;4455;50.880;4.698;2022-07-10T13:28:49;23.50;99.90
8838;DHT22;4455;50.880;4.698;2022-07-10T13:31:15;23.60;99.90
8838;DHT22;4455;50.880;4.698;2022-07-10T13:33:41;23.60;99.90
8838;DHT22;4455;50.880;4.698;2022-07-10T13:36:07;23.40;99.90
8838;DHT22;4455;50.880;4.698;2022-07-10T13:38:34;23.30;99.90
8838;DHT22;4455;50.880;4.698;2022-07-10T13:41:00;23.30;99.90
8838;DHT22;4455;50.880;4.698;2022-07-10T13:43:26;23.60;99.90
8838;DHT22;4455;50.880;4.698;2022-07-10T13:45:59;23.80;99.90
8838;DHT22;4455;50.880;4.698;2022-07-10T13:48:25;23.80;99.90
8838;DHT22;4455;50.880;4.698;2022-07-10T13:50:52;23.90;99.90
8838;DHT22;4455;50.880;4.698;2022-07-10T13:53:18;23.80;99.90
8838;DHT22;4455;50.880;4.698;2022-07-10T13:55:46;24.00;99.90
8838;DHT22;4455;50.880;4.698;2022-07-10T13:58:12;24.10;99.90
8838;DHT22;4455;50.880;4.698;2022-07-10T14:00:39;24.10;99.90
8838;DHT22;4455;50.880;4.698;2022-07-10T14:03:06;24.20;99.90
8838;DHT22;4455;50.880;4.698;2022-07-10T14:05:33;24.20;99.90
8838;DHT22;4455;50.880;4.698;2022-07-10T14:08:00;24.30;99.90
8838;DHT22;4455;50.880;4.698;2022-07-10T14:10:26;24.20;99.90
8838;DHT22;4455;50.880;4.698;2022-07-10T14:12:53;24.20;99.90
8838;DHT22;4455;50.880;4.698;2022-07-10T14:15:19;24.20;99.90
8838;DHT22;4455;50.880;4.698;2022-07-10T14:17:45;24.20;99.90
8838;DHT22;4455;50.880;4.698;2022-07-10T14:20:11;24.20;99.90
8838;DHT22;4455;50.880;4.698;2022-07-10T14:22:37;24.10;99.90
8838;DHT22;4455;50.880;4.698;2022-07-10T14:25:05;24.30;99.90
8838;DHT22;4455;50.880;4.698;2022-07-10T14:27:31;24.50;99.90
8838;DHT22;4455;50.880;4.698;2022-07-10T14:29:58;24.50;99.90
8838;DHT22;4455;50.880;4.698;2022-07-10T14:32:24;24.40;99.90
8838;DHT22;4455;50.880;4.698;2022-07-10T14:34:50;24.30;99.90
8838;DHT22;4455;50.880;4.698;2022-07-10T14:37:16;24.30;99.90
8838;DHT22;4455;50.880;4.698;2022-07-10T14:39:42;24.30;99.90
8838;DHT22;4455;50.880;4.698;2022-07-10T14:42:08;24.20;99.90
8838;DHT22;4455;50.880;4.698;2022-07-10T14:44:37;24.30;99.90
8838;DHT22;4455;50.880;4.698;2022-07-10T14:47:04;24.30;99.90
8838;DHT22;4455;50.880;4.698;2022-07-10T14:49:30;24.20;99.90
8838;DHT22;4455;50.880;4.698;2022-07-10T14:51:55;24.30;99.90
8838;DHT22;4455;50.880;4.698;2022-07-10T14:54:21;24.30;99.90
8838;DHT22;4455;50.880;4.698;2022-07-10T14:56:47;24.30;99.90
8838;DHT22;4455;50.880;4.698;2022-07-10T14:59:13;24.30;99.90
8838;DHT22;4455;50.880;4.698;2022-07-10T15:01:40;24.30;99.90
8838;DHT22;4455;50.880;4.698;2022-07-10T15:04:06;24.40;99.90
8838;DHT22;4455;50.880;4.698;2022-07-10T15:06:31;24.60;99.90
8838;DHT22;4455;50.880;4.698;2022-07-10T15:08:58;24.60;99.90
8838;DHT22;4455;50.880;4.698;2022-07-10T15:11:24;24.60;99.90
8838;DHT22;4455;50.880;4.698;2022-07-10T15:13:51;24.60;99.90
8838;DHT22;4455;50.880;4.698;2022-07-10T15:16:19;24.60;99.90
8838;DHT22;4455;50.880;4.698;2022-07-10T15:18:46;24.60;99.90
8838;DHT22;4455;50.880;4.698;2022-07-10T15:21:12;24.50;99.90
8838;DHT22;4455;50.880;4.698;2022-07-10T15:23:39;24.50;99.90
8838;DHT22;4455;50.880;4.698;2022-07-10T15:26:05;24.50;99.90
8838;DHT22;4455;50.880;4.698;2022-07-10T15:28:31;24.50;99.90
8838;DHT22;4455;50.880;4.698;2022-07-10T15:30:57;24.50;99.90
8838;DHT22;4455;50.880;4.698;2022-07-10T15:33:23;24.50;99.90
8838;DHT22;4455;50.880;4.698;2022-07-10T15:35:49;24.40;99.90
8838;DHT22;4455;50.880;4.698;2022-07-10T15:38:15;24.40;99.90
8838;DHT22;4455;50.880;4.698;2022-07-10T15:40:41;24.40;99.90
8838;DHT22;4455;50.880;4.698;2022-07-10T15:43:07;24.40;99.90
8838;DHT22;4455;50.880;4.698;2022-07-10T15:45:33;24.50;99.90
8838;DHT22;4455;50.880;4.698;2022-07-10T15:47:59;24.40;99.90
8838;DHT22;4455;50.880;4.698;2022-07-10T15:50:25;24.40;99.90
8838;DHT22;4455;50.880;4.698;2022-07-10T15:52:51;24.30;99.90
8838;DHT22;4455;50.880;4.698;2022-07-10T15:55:17;24.30;99.90
8838;DHT22;4455;50.880;4.698;2022-07-10T15:57:43;24.30;99.90
8838;DHT22;4455;50.880;4.698;2022-07-10T16:00:09;24.30;99.90
8838;DHT22;4455;50.880;4.698;2022-07-10T16:02:36;24.40;99.80
8838;DHT22;4455;50.880;4.698;2022-07-10T16:05:03;24.40;99.90
8838;DHT22;4455;50.880;4.698;2022-07-10T16:07:32;24.30;99.90
8838;DHT22;4455;50.880;4.698;2022-07-10T16:10:02;24.30;99.80
8838;DHT22;4455;50.880;4.698;2022-07-10T16:12:28;24.20;99.90
8838;DHT22;4455;50.880;4.698;2022-07-10T16:14:54;24.30;99.90
8838;DHT22;4455;50.880;4.698;2022-07-10T16:17:20;24.20;99.90
8838;DHT22;4455;50.880;4.698;2022-07-10T16:19:46;24.20;99.90
8838;DHT22;4455;50.880;4.698;2022-07-10T16:22:12;24.10;99.90
8838;DHT22;4455;50.880;4.698;2022-07-10T16:24:38;24.00;99.90
8838;DHT22;4455;50.880;4.698;2022-07-10T16:27:24;24.10;99.90
8838;DHT22;4455;50.880;4.698;2022-07-10T16:29:50;24.20;99.90
8838;DHT22;4455;50.880;4.698;2022-07-10T16:32:15;24.20;99.90
8838;DHT22;4455;50.880;4.698;2022-07-10T16:34:41;24.30;99.60
8838;DHT22;4455;50.880;4.698;2022-07-10T16:37:07;24.30;99.50
8838;DHT22;4455;50.880;4.698;2022-07-10T16:39:33;24.30;99.60
8838;DHT22;4455;50.880;4.698;2022-07-10T16:42:00;24.20;99.70
8838;DHT22;4455;50.880;4.698;2022-07-10T16:44:26;24.20;99.30
8838;DHT22;4455;50.880;4.698;2022-07-10T16:46:51;24.20;99.60
8838;DHT22;4455;50.880;4.698;2022-07-10T16:49:17;24.20;99.40
8838;DHT22;4455;50.880;4.698;2022-07-10T16:51:43;24.20;99.50
8838;DHT22;4455;50.880;4.698;2022-07-10T16:54:09;24.10;99.70